createdAt,value
2023-04-17T00:00:56.672Z,99.05
2023-04-17T00:01:56.765Z,97.11
2023-04-17T00:02:56.922Z,100.84
2023-04-17T00:03:56.998Z,98.52
2023-04-17T00:04:56.929Z,100.35
2023-04-17T00:05:56.950Z,94.65
2023-04-17T00:06:57.000Z,98.08
2023-04-17T00:07:57.071Z,101.17
2023-04-17T00:08:57.123Z,99.59
2023-04-17T00:09:57.190Z,97.23
2023-04-17T00:11:07.208Z,96.80
2023-04-17T00:11:58.221Z,97.06
2023-04-17T00:12:57.205Z,97.87
2023-04-17T00:13:57.203Z,97.89
2023-04-17T00:14:57.201Z,98.31
2023-04-17T00:15:57.238Z,101.39
2023-04-17T00:16:57.179Z,97.68
2023-04-17T00:17:57.227Z,98.72
2023-04-17T00:18:57.174Z,98.26
2023-04-17T00:19:57.176Z,99.06
2023-04-17T00:20:57.293Z,98.50
2023-04-17T00:21:57.184Z,96.16
2023-04-17T00:22:57.250Z,98.30
2023-04-17T00:23:57.325Z,96.92
2023-04-17T00:24:57.361Z,96.42
2023-04-17T00:25:57.417Z,96.39
2023-04-17T00:26:57.470Z,96.82
2023-04-17T00:27:57.521Z,97.90
2023-04-17T00:28:57.580Z,99.16
2023-04-17T00:29:57.633Z,99.72
2023-04-17T00:30:57.681Z,97.74
2023-04-17T00:31:57.757Z,98.69
2023-04-17T00:32:57.873Z,94.44
2023-04-17T00:33:57.827Z,99.21
2023-04-17T00:34:57.876Z,96.34
2023-04-17T00:35:57.924Z,96.52
2023-04-17T00:36:57.974Z,95.87
2023-04-17T00:37:58.022Z,99.96
2023-04-17T00:38:58.074Z,97.73
2023-04-17T00:39:58.135Z,98.71
2023-04-17T00:40:58.185Z,98.68
2023-04-17T00:41:58.242Z,99.67
2023-04-17T00:42:58.301Z,98.54
2023-04-17T00:43:58.337Z,97.59
2023-04-17T00:44:58.387Z,97.87
2023-04-17T00:45:58.463Z,98.27
2023-04-17T00:46:58.490Z,98.95
2023-04-17T00:47:58.612Z,97.55
2023-04-17T00:48:58.559Z,97.23
2023-04-17T00:49:58.581Z,95.29
2023-04-17T00:50:58.621Z,97.29
2023-04-17T00:51:58.675Z,98.54
2023-04-17T00:52:58.725Z,98.37
2023-04-17T00:53:58.758Z,95.88
2023-04-17T00:54:58.807Z,96.08
2023-04-17T00:55:58.839Z,96.26
2023-04-17T00:56:58.905Z,94.58
2023-04-17T00:57:58.913Z,96.18
2023-04-17T00:58:58.974Z,96.85
2023-04-17T00:59:59.041Z,96.65
2023-04-17T01:00:59.077Z,95.69
2023-04-17T01:01:59.170Z,97.99
2023-04-17T01:02:59.275Z,96.25
2023-04-17T01:03:59.352Z,97.62
2023-04-17T01:04:59.286Z,99.15
2023-04-17T01:05:59.345Z,96.86
2023-04-17T01:06:59.443Z,94.52
2023-04-17T01:07:59.435Z,94.98
2023-04-17T01:08:59.484Z,96.19
2023-04-17T01:09:59.515Z,97.10
2023-04-17T01:10:59.582Z,99.02
2023-04-17T01:11:59.630Z,97.03
2023-04-17T01:12:59.711Z,96.63
2023-04-17T01:13:59.768Z,98.29
2023-04-17T01:14:59.797Z,96.58
2023-04-17T01:15:59.865Z,95.02
2023-04-17T01:16:59.956Z,96.13
2023-04-17T01:18:00.001Z,95.45
2023-04-17T01:19:00.018Z,97.03
2023-04-17T01:20:00.067Z,95.89
2023-04-17T01:21:00.118Z,96.80
2023-04-17T01:22:00.149Z,99.54
2023-04-17T01:23:00.181Z,97.74
2023-04-17T01:24:00.242Z,96.03
2023-04-17T01:25:00.317Z,97.55
2023-04-17T01:26:00.336Z,95.42
2023-04-17T01:27:00.379Z,97.45
2023-04-17T01:28:00.437Z,96.27
2023-04-17T01:29:00.475Z,97.54
2023-04-17T01:30:00.556Z,97.08
2023-04-17T01:31:00.599Z,95.82
2023-04-17T01:32:00.597Z,94.55
2023-04-17T01:33:00.693Z,98.34
2023-04-17T01:34:00.709Z,96.49
2023-04-17T01:35:00.790Z,98.45
2023-04-17T01:36:00.822Z,95.26
2023-04-17T01:37:00.873Z,95.98
2023-04-17T01:38:00.955Z,96.65
2023-04-17T01:39:00.975Z,95.25
2023-04-17T01:40:01.015Z,98.73
2023-04-17T01:41:01.021Z,96.55
2023-04-17T01:42:01.046Z,95.91
2023-04-17T01:43:01.116Z,95.19
2023-04-17T01:44:01.181Z,95.59
2023-04-17T01:45:01.217Z,96.74
2023-04-17T01:46:01.294Z,96.15
2023-04-17T01:47:01.314Z,94.46
2023-04-17T01:48:01.478Z,94.44
2023-04-17T01:49:01.413Z,94.97
2023-04-17T01:50:01.465Z,97.42
2023-04-17T01:51:01.517Z,96.18
2023-04-17T01:52:01.573Z,95.13
2023-04-17T01:53:01.668Z,96.69
2023-04-17T01:54:01.668Z,95.38
2023-04-17T01:55:01.700Z,97.76
2023-04-17T01:56:01.799Z,93.08
2023-04-17T01:57:01.795Z,95.15
2023-04-17T01:58:01.778Z,95.77
2023-04-17T01:59:01.813Z,91.55
2023-04-17T02:00:01.847Z,93.88
2023-04-17T02:01:01.884Z,95.78
2023-04-17T02:02:01.966Z,95.25
2023-04-17T02:03:02.028Z,96.19
2023-04-17T02:04:02.019Z,95.58
2023-04-17T02:05:01.970Z,95.04
2023-04-17T02:06:01.993Z,95.24
2023-04-17T02:07:01.991Z,96.06
2023-04-17T02:08:02.002Z,97.02
2023-04-17T02:09:02.004Z,95.23
2023-04-17T02:10:02.015Z,95.56
2023-04-17T02:11:02.059Z,92.26
2023-04-17T02:12:02.026Z,94.34
2023-04-17T02:13:02.072Z,93.05
2023-04-17T02:14:02.170Z,92.82
2023-04-17T02:15:02.045Z,95.18
2023-04-17T02:16:02.163Z,94.51
2023-04-17T02:17:02.066Z,95.37
2023-04-17T02:18:02.146Z,93.19
2023-04-17T02:19:02.063Z,93.52
2023-04-17T02:20:02.078Z,92.85
2023-04-17T02:21:02.099Z,95.05
2023-04-17T02:22:02.094Z,94.28
2023-04-17T02:23:02.113Z,92.44
2023-04-17T02:24:02.103Z,94.80
2023-04-17T02:25:02.112Z,94.74
2023-04-17T02:26:02.594Z,94.94
2023-04-17T02:27:02.118Z,93.76
2023-04-17T02:28:02.141Z,93.51
2023-04-17T02:29:02.132Z,96.53
2023-04-17T02:30:02.202Z,94.32
2023-04-17T02:31:02.201Z,96.03
2023-04-17T02:32:02.188Z,93.97
2023-04-17T02:33:02.339Z,92.66
2023-04-17T02:34:02.172Z,97.51
2023-04-17T02:35:02.212Z,94.27
2023-04-17T02:36:02.193Z,92.98
2023-04-17T02:37:02.195Z,93.90
2023-04-17T02:38:02.237Z,94.85
2023-04-17T02:39:02.218Z,93.11
2023-04-17T02:40:02.229Z,93.51
2023-04-17T02:41:02.245Z,93.72
2023-04-17T02:42:02.255Z,95.31
2023-04-17T02:43:02.261Z,94.00
2023-04-17T02:44:02.308Z,91.76
2023-04-17T02:45:02.284Z,92.83
2023-04-17T02:46:02.307Z,94.80
2023-04-17T02:47:02.386Z,93.44
2023-04-17T02:48:02.425Z,92.65
2023-04-17T02:49:02.329Z,92.19
2023-04-17T02:50:02.364Z,91.76
2023-04-17T02:51:02.354Z,93.26
2023-04-17T02:52:02.363Z,95.61
2023-04-17T02:53:02.362Z,93.72
2023-04-17T02:54:02.389Z,93.76
2023-04-17T02:55:02.384Z,96.96
2023-04-17T02:56:02.397Z,93.53
2023-04-17T02:57:02.605Z,91.34
2023-04-17T02:58:02.424Z,91.07
2023-04-17T02:59:02.423Z,93.25
2023-04-17T03:00:02.430Z,92.92
2023-04-17T03:01:02.540Z,96.70
2023-04-17T03:02:02.540Z,93.69
2023-04-17T03:03:02.626Z,92.90
2023-04-17T03:04:02.693Z,93.54
2023-04-17T03:05:02.462Z,93.26
2023-04-17T03:06:02.463Z,94.06
2023-04-17T03:07:02.466Z,92.56
2023-04-17T03:08:02.471Z,92.03
2023-04-17T03:09:02.462Z,94.33
2023-04-17T03:10:02.509Z,91.32
2023-04-17T03:11:02.482Z,92.44
2023-04-17T03:12:02.479Z,93.33
2023-04-17T03:13:02.471Z,92.74
2023-04-17T03:14:02.494Z,93.43
2023-04-17T03:15:02.482Z,91.79
2023-04-17T03:16:02.508Z,89.89
2023-04-17T03:17:02.503Z,90.22
2023-04-17T03:18:02.557Z,92.07
2023-04-17T03:19:02.519Z,92.28
2023-04-17T03:20:02.516Z,92.51
2023-04-17T03:21:02.527Z,94.08
2023-04-17T03:22:02.531Z,93.87
2023-04-17T03:23:02.532Z,92.02
2023-04-17T03:24:02.531Z,91.84
2023-04-17T03:25:02.536Z,94.64
2023-04-17T03:26:02.533Z,92.34
2023-04-17T03:27:02.534Z,94.47
2023-04-17T03:28:02.538Z,91.60
2023-04-17T03:29:02.554Z,92.00
2023-04-17T03:30:02.586Z,94.51
2023-04-17T03:31:02.569Z,90.97
2023-04-17T03:32:02.589Z,95.50
2023-04-17T03:33:02.598Z,94.84
2023-04-17T03:34:02.551Z,92.32
2023-04-17T03:36:00.591Z,25.00
2023-04-17T03:37:00.589Z,25.00
2023-04-17T03:38:00.618Z,25.00
2023-04-17T03:39:00.648Z,25.00
2023-04-17T03:40:00.693Z,25.00
2023-04-17T03:41:00.721Z,25.81
2023-04-17T03:42:00.755Z,25.30
2023-04-17T03:43:00.810Z,26.33
2023-04-17T03:44:00.869Z,26.11
2023-04-17T03:45:01.136Z,27.59
2023-04-17T03:46:00.937Z,28.29
2023-04-17T03:47:00.950Z,28.43
2023-04-17T03:48:01.071Z,26.12
2023-04-17T03:49:00.998Z,30.74
2023-04-17T03:50:01.041Z,27.92
2023-04-17T03:51:01.081Z,29.94
2023-04-17T03:52:01.108Z,27.37
2023-04-17T03:53:01.075Z,29.31
2023-04-17T03:54:01.076Z,27.81
2023-04-17T03:55:01.079Z,31.04
2023-04-17T03:56:01.088Z,28.38
2023-04-17T03:57:01.129Z,27.88
2023-04-17T03:58:01.156Z,30.92
2023-04-17T03:59:01.175Z,28.36
2023-04-17T04:00:01.200Z,29.60
2023-04-17T04:01:01.258Z,31.06
2023-04-17T04:02:01.409Z,27.80
2023-04-17T04:03:01.413Z,32.06
2023-04-17T04:04:01.537Z,29.33
2023-04-17T04:05:01.387Z,29.07
2023-04-17T04:06:01.363Z,30.36
2023-04-17T04:07:01.384Z,28.14
2023-04-17T04:08:01.403Z,28.57
2023-04-17T04:09:01.425Z,28.94
2023-04-17T04:10:01.454Z,28.29
2023-04-17T04:11:01.478Z,29.78
2023-04-17T04:12:01.494Z,28.41
2023-04-17T04:13:01.501Z,31.46
2023-04-17T04:14:01.540Z,27.77
2023-04-17T04:15:01.602Z,28.62
2023-04-17T04:16:01.666Z,29.14
2023-04-17T04:17:01.623Z,28.37
2023-04-17T04:18:02.605Z,27.12
2023-04-17T04:19:01.700Z,30.36
2023-04-17T04:20:01.646Z,28.42
2023-04-17T04:21:01.700Z,28.10
2023-04-17T04:22:01.688Z,30.83
2023-04-17T04:23:01.724Z,29.21
2023-04-17T04:24:01.776Z,28.69
2023-04-17T04:25:01.870Z,30.54
2023-04-17T04:26:02.003Z,29.49
2023-04-17T04:27:01.900Z,30.10
2023-04-17T04:28:01.960Z,28.69
2023-04-17T04:29:02.066Z,29.15
2023-04-17T04:30:02.123Z,28.13
2023-04-17T04:31:02.119Z,27.68
2023-04-17T04:32:02.133Z,28.73
2023-04-17T04:33:02.247Z,32.06
2023-04-17T04:34:02.195Z,31.69
2023-04-17T04:35:02.355Z,31.98
2023-04-17T04:36:02.243Z,30.69
2023-04-17T04:37:02.221Z,29.51
2023-04-17T04:38:02.265Z,29.73
2023-04-17T04:39:02.197Z,29.53
2023-04-17T04:40:02.183Z,31.59
2023-04-17T04:41:02.203Z,28.57
2023-04-17T04:42:02.210Z,27.34
2023-04-17T04:43:02.318Z,30.20
2023-04-17T04:44:02.301Z,29.49
2023-04-17T04:45:02.296Z,27.32
2023-04-17T04:46:02.303Z,29.69
2023-04-17T04:47:02.367Z,28.90
2023-04-17T04:48:02.363Z,27.84
2023-04-17T04:49:02.333Z,26.74
2023-04-17T04:50:02.376Z,29.32
2023-04-17T04:51:02.372Z,30.54
2023-04-17T04:52:02.417Z,30.98
2023-04-17T04:53:02.470Z,29.28
2023-04-17T04:54:02.476Z,29.30
2023-04-17T04:55:02.510Z,28.75
2023-04-17T04:56:02.564Z,30.05
2023-04-17T04:57:02.579Z,30.09
2023-04-17T04:58:02.627Z,30.29
2023-04-17T04:59:02.675Z,27.98
2023-04-17T05:00:02.675Z,32.25
2023-04-17T05:01:02.756Z,32.33
2023-04-17T05:02:02.772Z,31.40
2023-04-17T05:03:03.007Z,31.76
2023-04-17T05:04:02.816Z,30.64
2023-04-17T05:05:02.776Z,29.87
2023-04-17T05:06:02.683Z,29.92
2023-04-17T05:07:02.690Z,31.17
2023-04-17T05:08:02.709Z,31.48
2023-04-17T05:09:02.697Z,31.88
2023-04-17T05:10:02.679Z,31.73
2023-04-17T05:11:02.681Z,31.13
2023-04-17T05:12:02.655Z,30.30
2023-04-17T05:13:02.636Z,30.45
2023-04-17T05:14:02.615Z,29.81
2023-04-17T05:15:02.590Z,31.59
2023-04-17T05:16:02.600Z,28.69
2023-04-17T05:17:02.562Z,29.61
2023-04-17T05:18:02.605Z,28.28
2023-04-17T05:19:02.544Z,30.32
2023-04-17T05:20:02.545Z,30.32
2023-04-17T05:21:02.552Z,30.66
2023-04-17T05:22:02.596Z,28.63
2023-04-17T05:23:02.622Z,33.24
2023-04-17T05:24:02.624Z,41.31
2023-04-17T05:25:02.657Z,73.96
2023-04-17T05:26:02.691Z,89.69
2023-04-17T05:27:02.733Z,99.00
2023-04-17T05:28:02.798Z,103.70
2023-04-17T05:29:02.876Z,105.73
2023-04-17T05:30:02.927Z,109.57
2023-04-17T05:31:02.936Z,107.99
2023-04-17T05:32:03.998Z,108.43
2023-04-17T05:33:03.610Z,110.97
2023-04-17T05:34:02.900Z,114.50
2023-04-17T05:35:02.889Z,123.42
2023-04-17T05:36:02.871Z,133.55
2023-04-17T05:37:02.859Z,138.88
2023-04-17T05:38:02.846Z,143.48
2023-04-17T05:39:02.832Z,141.42
2023-04-17T05:40:02.816Z,146.28
2023-04-17T05:41:02.880Z,146.55
2023-04-17T05:42:02.909Z,149.55
2023-04-17T05:43:03.564Z,148.78
2023-04-17T05:44:03.009Z,147.37
2023-04-17T05:45:04.770Z,152.86
2023-04-17T05:46:03.211Z,152.71
2023-04-17T05:47:03.139Z,152.86
2023-04-17T05:48:03.244Z,151.52
2023-04-17T05:49:03.244Z,153.91
2023-04-17T05:50:03.257Z,152.67
2023-04-17T05:51:03.287Z,151.48
2023-04-17T05:52:04.060Z,152.69
2023-04-17T05:53:03.364Z,153.31
2023-04-17T05:54:04.082Z,147.03
2023-04-17T05:55:03.449Z,151.17
2023-04-17T05:56:03.509Z,150.35
2023-04-17T05:57:03.545Z,149.79
2023-04-17T05:59:03.627Z,145.16
2023-04-17T06:00:03.679Z,146.80
2023-04-17T06:01:03.847Z,145.15
2023-04-17T06:02:03.821Z,146.36
2023-04-17T06:03:03.985Z,148.22
2023-04-17T06:04:04.103Z,143.16
2023-04-17T06:05:04.084Z,144.31
2023-04-17T06:06:03.904Z,142.73
2023-04-17T06:07:03.906Z,140.65
2023-04-17T06:08:03.941Z,141.77
2023-04-17T06:09:03.989Z,142.25
2023-04-17T06:10:04.043Z,144.36
2023-04-17T06:11:04.072Z,141.61
2023-04-17T06:12:04.109Z,140.62
2023-04-17T06:13:04.141Z,140.34
2023-04-17T06:14:04.150Z,143.16
2023-04-17T06:15:04.211Z,137.94
2023-04-17T06:16:04.218Z,136.34
2023-04-17T06:17:04.302Z,135.19
2023-04-17T06:18:04.353Z,137.00
2023-04-17T06:19:04.349Z,137.76
2023-04-17T06:20:04.389Z,134.47
2023-04-17T06:21:04.440Z,136.40
2023-04-17T06:22:04.484Z,134.21
2023-04-17T06:23:04.538Z,136.57
2023-04-17T06:24:04.598Z,138.02
2023-04-17T06:25:04.628Z,160.42
2023-04-17T06:26:04.669Z,168.05
2023-04-17T06:27:04.731Z,159.95
2023-04-17T06:28:04.739Z,95.68
2023-04-17T06:29:04.758Z,54.71
2023-04-17T06:30:04.770Z,20.10
2023-04-17T06:31:04.917Z,25.00
2023-04-17T06:32:04.893Z,26.94
2023-04-17T06:33:05.021Z,29.43
2023-04-17T06:34:05.049Z,38.95
2023-04-17T06:35:05.097Z,54.43
2023-04-17T06:36:06.012Z,72.48
2023-04-17T06:37:05.169Z,96.80
2023-04-17T06:38:05.193Z,114.98
2023-04-17T06:39:06.185Z,115.61
2023-04-17T06:40:05.213Z,118.76
2023-04-17T06:41:05.172Z,127.95
2023-04-17T06:42:05.164Z,143.16
2023-04-17T06:43:05.147Z,166.68
2023-04-17T06:44:05.162Z,178.04
2023-04-17T06:45:05.127Z,189.57
2023-04-17T06:46:05.121Z,198.39
2023-04-17T06:47:05.122Z,204.16
2023-04-17T06:48:05.138Z,214.90
2023-04-17T06:49:05.085Z,219.81
2023-04-17T06:50:05.056Z,228.47
2023-04-17T06:51:05.097Z,239.59
2023-04-17T06:52:05.152Z,245.40
2023-04-17T06:53:05.175Z,249.60
2023-04-17T06:54:05.214Z,250.00
2023-04-17T06:55:05.274Z,248.85
2023-04-17T06:56:05.297Z,250.00
2023-04-17T06:57:05.332Z,250.49
2023-04-17T06:58:05.351Z,250.00
2023-04-17T06:59:05.375Z,248.11
2023-04-17T07:00:05.392Z,249.78
2023-04-17T07:01:05.406Z,249.47
2023-04-17T07:02:05.522Z,250.00
2023-04-17T07:03:05.478Z,249.75
2023-04-17T07:04:05.553Z,250.24
2023-04-17T07:05:05.530Z,249.88
2023-04-17T07:06:06.102Z,250.00
2023-04-17T07:07:05.470Z,248.64
2023-04-17T07:08:05.469Z,250.00
2023-04-17T07:09:05.467Z,250.00
2023-04-17T07:10:05.464Z,250.00
2023-04-17T07:11:06.101Z,250.00
2023-04-17T07:12:05.533Z,250.00
2023-04-17T07:13:05.432Z,249.42
2023-04-17T07:14:05.420Z,250.11
2023-04-17T07:15:05.518Z,250.00
2023-04-17T07:16:05.425Z,248.74
2023-04-17T07:17:05.381Z,250.56
2023-04-17T07:18:07.128Z,248.92
2023-04-17T07:19:05.365Z,250.00
2023-04-17T07:20:05.356Z,249.92
2023-04-17T07:21:05.355Z,248.90
2023-04-17T07:22:05.340Z,248.66
2023-04-17T07:23:06.204Z,246.71
2023-04-17T07:24:06.024Z,248.48
2023-04-17T07:25:06.354Z,248.57
2023-04-17T07:26:05.271Z,248.91
2023-04-17T07:27:05.253Z,248.78
2023-04-17T07:28:07.036Z,247.33
2023-04-17T07:29:05.245Z,244.49
2023-04-17T07:30:05.229Z,243.69
2023-04-17T07:31:05.197Z,242.06
2023-04-17T07:32:05.115Z,240.32
2023-04-17T07:33:05.119Z,241.30
2023-04-17T07:34:05.090Z,240.98
2023-04-17T07:35:05.050Z,239.13
2023-04-17T07:36:05.032Z,237.44
2023-04-17T07:37:05.012Z,237.09
2023-04-17T07:38:04.978Z,237.03
2023-04-17T07:39:04.957Z,236.86
2023-04-17T07:40:04.938Z,236.48
2023-04-17T07:41:04.926Z,236.41
2023-04-17T07:42:04.902Z,236.22
2023-04-17T07:43:04.879Z,236.15
2023-04-17T07:44:06.622Z,234.64
2023-04-17T07:45:04.834Z,234.77
2023-04-17T07:46:04.812Z,235.02
2023-04-17T07:47:04.846Z,234.77
2023-04-17T07:48:04.805Z,232.31
2023-04-17T07:49:04.750Z,232.36
2023-04-17T07:50:04.729Z,231.34
2023-04-17T07:51:04.710Z,231.48
2023-04-17T07:52:04.682Z,230.89
2023-04-17T07:53:04.647Z,228.03
2023-04-17T07:54:04.641Z,228.40
2023-04-17T07:55:04.618Z,228.19
2023-04-17T07:56:04.588Z,227.74
2023-04-17T07:57:04.583Z,228.45
2023-04-17T07:58:04.560Z,225.01
2023-04-17T07:59:04.532Z,226.14
2023-04-17T08:00:04.505Z,224.27
2023-04-17T08:01:04.628Z,224.33
2023-04-17T08:02:04.535Z,224.25
2023-04-17T08:03:04.622Z,222.88
2023-04-17T08:04:04.577Z,222.00
2023-04-17T08:05:04.439Z,220.34
2023-04-17T08:06:04.336Z,219.25
2023-04-17T08:07:04.286Z,219.03
2023-04-17T08:08:04.254Z,217.55
2023-04-17T08:09:04.220Z,216.26
2023-04-17T08:10:04.170Z,215.13
2023-04-17T08:11:04.146Z,212.15
2023-04-17T08:12:04.114Z,208.74
2023-04-17T08:13:04.063Z,180.48
2023-04-17T08:14:04.046Z,136.09
2023-04-17T08:15:04.035Z,84.73
2023-04-17T08:16:04.002Z,37.53
2023-04-17T08:17:04.079Z,10.13
2023-04-17T08:18:04.077Z,0.00
2023-04-17T08:19:03.991Z,0.00
2023-04-17T08:20:03.981Z,0.00
2023-04-17T08:21:04.079Z,0.00
2023-04-17T08:22:04.091Z,14.40
2023-04-17T08:23:04.157Z,12.21
2023-04-17T08:24:04.150Z,0.00
2023-04-17T08:25:05.127Z,0.00
2023-04-17T08:26:05.088Z,0.00
2023-04-17T08:27:04.188Z,0.00
2023-04-17T08:28:04.191Z,0.00
2023-04-17T08:29:04.192Z,0.00
2023-04-17T08:30:04.219Z,0.00
2023-04-17T08:31:04.236Z,6.80
2023-04-17T08:32:13.278Z,24.23
2023-04-17T08:33:05.276Z,24.54
2023-04-17T08:34:13.714Z,26.72
2023-04-17T08:35:05.204Z,25.09
2023-04-17T08:36:06.474Z,28.42
2023-04-17T08:37:04.185Z,25.31
2023-04-17T08:38:04.186Z,29.02
2023-04-17T08:39:04.175Z,35.15
2023-04-17T08:40:04.188Z,44.56
2023-04-17T08:41:04.150Z,55.48
2023-04-17T08:42:04.110Z,56.71
2023-04-17T08:43:04.111Z,56.34
2023-04-17T08:44:04.114Z,55.23
2023-04-17T08:45:04.102Z,55.41
2023-04-17T08:46:04.127Z,55.48
2023-04-17T08:47:04.075Z,55.25
2023-04-17T08:48:04.091Z,55.87
2023-04-17T08:49:04.017Z,55.42
2023-04-17T08:50:04.009Z,55.85
2023-04-17T08:51:03.988Z,56.81
2023-04-17T08:52:03.989Z,57.10
2023-04-17T08:53:03.956Z,57.78
2023-04-17T08:54:03.926Z,58.32
2023-04-17T08:55:03.920Z,59.24
2023-04-17T08:56:05.233Z,58.66
2023-04-17T08:57:03.881Z,58.89
2023-04-17T08:58:03.924Z,59.86
2023-04-17T08:59:04.853Z,59.97
2023-04-17T09:00:03.815Z,60.31
2023-04-17T09:01:03.820Z,61.22
2023-04-17T09:02:03.965Z,62.39
2023-04-17T09:03:03.939Z,63.69
2023-04-17T09:04:03.880Z,64.85
2023-04-17T09:05:03.880Z,65.44
2023-04-17T09:06:03.670Z,66.04
2023-04-17T09:07:03.729Z,64.95
2023-04-17T09:08:03.616Z,66.43
2023-04-17T09:09:03.595Z,66.81
2023-04-17T09:10:03.561Z,68.43
2023-04-17T09:11:03.532Z,67.73
2023-04-17T09:12:03.502Z,69.04
2023-04-17T09:13:03.487Z,69.78
2023-04-17T09:14:03.453Z,71.68
2023-04-17T09:15:03.478Z,72.45
2023-04-17T09:16:03.529Z,72.43
2023-04-17T09:17:04.065Z,75.24
2023-04-17T09:18:03.624Z,75.80
2023-04-17T09:19:03.528Z,76.84
2023-04-17T09:20:03.512Z,77.88
2023-04-17T09:21:03.506Z,80.79
2023-04-17T09:22:03.513Z,85.12
2023-04-17T09:23:03.528Z,89.80
2023-04-17T09:24:03.531Z,90.80
2023-04-17T09:25:03.546Z,94.23
2023-04-17T09:26:04.075Z,95.37
2023-04-17T09:27:03.541Z,97.25
2023-04-17T09:28:03.567Z,100.57
2023-04-17T09:29:04.280Z,100.64
2023-04-17T09:30:03.572Z,102.50
2023-04-17T09:31:03.628Z,103.15
2023-04-17T09:32:03.657Z,104.95
2023-04-17T09:33:03.609Z,106.22
2023-04-17T09:34:03.570Z,107.10
2023-04-17T09:35:03.607Z,107.16
2023-04-17T09:36:04.149Z,108.72
2023-04-17T09:37:03.585Z,108.52
2023-04-17T09:38:03.618Z,108.94
2023-04-17T09:39:03.594Z,110.37
2023-04-17T09:40:03.602Z,111.92
2023-04-17T09:41:03.606Z,111.64
2023-04-17T09:42:04.649Z,111.78
2023-04-17T09:43:03.558Z,112.10
2023-04-17T09:44:03.539Z,111.81
2023-04-17T09:45:03.597Z,112.34
2023-04-17T09:46:03.473Z,113.43
2023-04-17T09:47:03.631Z,115.02
2023-04-17T09:48:03.461Z,117.19
2023-04-17T09:49:03.398Z,118.27
2023-04-17T09:50:03.376Z,118.19
2023-04-17T09:51:03.356Z,117.09
2023-04-17T09:52:03.339Z,118.41
2023-04-17T09:53:03.302Z,117.48
2023-04-17T09:54:03.287Z,117.95
2023-04-17T09:55:03.261Z,117.63
2023-04-17T09:56:03.280Z,119.06
2023-04-17T09:57:03.193Z,118.50
2023-04-17T09:58:03.156Z,119.72
2023-04-17T09:59:03.135Z,119.79
2023-04-17T10:00:03.119Z,119.57
2023-04-17T10:01:03.195Z,120.24
2023-04-17T10:02:03.306Z,119.38
2023-04-17T10:03:03.261Z,120.27
2023-04-17T10:04:03.260Z,119.59
2023-04-17T10:05:04.078Z,120.62
2023-04-17T10:06:03.174Z,120.32
2023-04-17T10:07:03.172Z,121.25
2023-04-17T10:08:03.151Z,121.33
2023-04-17T10:09:03.128Z,121.43
2023-04-17T10:10:03.122Z,121.82
2023-04-17T10:11:03.087Z,121.37
2023-04-17T10:12:03.071Z,121.74
2023-04-17T10:13:03.057Z,121.97
2023-04-17T10:14:03.026Z,122.76
2023-04-17T10:15:03.021Z,124.12
2023-04-17T10:16:03.018Z,127.38
2023-04-17T10:17:03.085Z,127.28
2023-04-17T10:18:02.992Z,129.73
2023-04-17T10:19:02.928Z,131.36
2023-04-17T10:20:02.912Z,131.49
2023-04-17T10:21:03.398Z,132.19
2023-04-17T10:22:02.871Z,134.51
2023-04-17T10:23:02.866Z,138.84
2023-04-17T10:24:02.826Z,144.81
2023-04-17T10:25:02.812Z,148.95
2023-04-17T10:26:02.747Z,152.03
2023-04-17T10:27:02.737Z,155.60
2023-04-17T10:28:02.690Z,157.98
2023-04-17T10:29:02.653Z,160.45
2023-04-17T10:30:02.678Z,164.67
2023-04-17T10:31:02.626Z,166.96
2023-04-17T10:32:02.640Z,171.32
2023-04-17T10:33:02.764Z,173.11
2023-04-17T10:34:02.494Z,175.99
2023-04-17T10:35:02.461Z,177.55
2023-04-17T10:36:02.426Z,180.50
2023-04-17T10:37:02.390Z,182.75
2023-04-17T10:38:02.371Z,184.67
2023-04-17T10:39:02.335Z,184.90
2023-04-17T10:40:02.358Z,185.85
2023-04-17T10:41:02.275Z,187.83
2023-04-17T10:42:02.249Z,191.41
2023-04-17T10:43:02.216Z,197.42
2023-04-17T10:44:02.172Z,199.26
2023-04-17T10:45:02.139Z,202.53
2023-04-17T10:46:02.234Z,203.54
2023-04-17T10:47:02.079Z,204.54
2023-04-17T10:48:02.075Z,206.32
2023-04-17T10:49:02.024Z,207.21
2023-04-17T10:50:02.000Z,208.39
2023-04-17T10:51:01.963Z,210.67
2023-04-17T10:52:01.929Z,211.96
2023-04-17T10:53:01.872Z,227.98
2023-04-17T10:54:01.899Z,233.93
2023-04-17T10:55:01.809Z,228.55
2023-04-17T10:56:01.773Z,226.18
2023-04-17T10:57:01.743Z,224.43
2023-04-17T10:58:01.695Z,225.33
2023-04-17T10:59:01.730Z,225.61
2023-04-17T11:00:01.640Z,225.93
2023-04-17T11:01:01.687Z,227.34
2023-04-17T11:02:01.893Z,228.67
2023-04-17T11:03:01.959Z,228.56
2023-04-17T11:04:01.773Z,228.65
2023-04-17T11:05:01.923Z,229.87
2023-04-17T11:06:01.788Z,236.34
2023-04-17T11:07:01.827Z,234.36
2023-04-17T11:08:01.834Z,237.77
2023-04-17T11:09:01.837Z,237.46
2023-04-17T11:10:01.840Z,239.14
2023-04-17T11:11:01.803Z,238.07
2023-04-17T11:12:02.252Z,235.25
2023-04-17T11:13:01.807Z,235.86
2023-04-17T11:14:01.750Z,235.79
2023-04-17T11:15:01.723Z,229.69
2023-04-17T11:16:01.707Z,208.43
2023-04-17T11:17:01.795Z,184.61
2023-04-17T11:18:01.794Z,161.93
2023-04-17T11:19:01.668Z,150.52
2023-04-17T11:20:01.657Z,150.65
2023-04-17T11:21:01.665Z,153.98
2023-04-17T11:22:01.745Z,160.82
2023-04-17T11:23:01.657Z,170.16
2023-04-17T11:24:01.685Z,180.43
2023-04-17T11:25:01.668Z,190.89
2023-04-17T11:26:01.675Z,200.55
2023-04-17T11:27:01.654Z,207.74
2023-04-17T11:28:01.729Z,211.35
2023-04-17T11:29:01.650Z,214.41
2023-04-17T11:30:01.662Z,215.23
2023-04-17T11:31:01.681Z,213.19
2023-04-17T11:32:01.686Z,210.24
2023-04-17T11:33:01.701Z,209.32
2023-04-17T11:34:01.648Z,208.86
2023-04-17T11:35:01.649Z,205.07
2023-04-17T11:36:01.673Z,205.77
2023-04-17T11:37:01.702Z,204.21
2023-04-17T11:38:01.644Z,203.30
2023-04-17T11:39:01.640Z,203.36
2023-04-17T11:40:01.642Z,203.42
2023-04-17T11:41:01.627Z,202.27
2023-04-17T11:42:01.664Z,203.10
2023-04-17T11:43:01.625Z,201.82
2023-04-17T11:44:01.612Z,201.80
2023-04-17T11:45:03.077Z,201.30
2023-04-17T11:46:01.804Z,200.69
2023-04-17T11:47:01.747Z,199.87
2023-04-17T11:48:01.851Z,200.28
2023-04-17T11:49:01.738Z,201.34
2023-04-17T11:50:01.736Z,201.04
2023-04-17T11:51:01.743Z,200.39
2023-04-17T11:52:01.788Z,199.95
2023-04-17T11:53:01.727Z,199.40
2023-04-17T11:54:01.737Z,199.56
2023-04-17T11:55:01.757Z,200.29
2023-04-17T11:56:01.719Z,199.94
2023-04-17T11:57:01.919Z,200.30
2023-04-17T11:58:01.719Z,200.35
2023-04-17T11:59:01.719Z,200.03
2023-04-17T12:00:01.727Z,200.15
2023-04-17T12:01:01.724Z,200.97
2023-04-17T12:02:01.907Z,199.72
2023-04-17T12:03:01.851Z,199.94
2023-04-17T12:04:01.906Z,200.90
2023-04-17T12:05:01.818Z,200.41
2023-04-17T12:06:01.888Z,200.32
2023-04-17T12:07:01.717Z,200.63
2023-04-17T12:08:01.770Z,201.01
2023-04-17T12:09:01.713Z,202.05
2023-04-17T12:10:01.731Z,201.59
2023-04-17T12:11:01.722Z,202.22
2023-04-17T12:12:01.719Z,202.03
2023-04-17T12:13:01.725Z,202.31
2023-04-17T12:14:01.741Z,202.86
2023-04-17T12:15:01.756Z,204.10
2023-04-17T12:16:01.871Z,202.38
2023-04-17T12:17:01.801Z,202.59
2023-04-17T12:18:01.854Z,203.14
2023-04-17T12:19:01.763Z,201.88
2023-04-17T12:20:01.755Z,203.74
2023-04-17T12:21:01.752Z,203.15
2023-04-17T12:22:01.755Z,203.89
2023-04-17T12:23:01.834Z,203.22
2023-04-17T12:24:01.760Z,203.39
2023-04-17T12:25:01.752Z,204.64
2023-04-17T12:26:01.818Z,204.14
2023-04-17T12:27:01.985Z,204.57
2023-04-17T12:28:01.767Z,204.99
2023-04-17T12:29:01.780Z,204.14
2023-04-17T12:30:01.865Z,204.38
2023-04-17T12:31:01.799Z,204.38
2023-04-17T12:32:01.874Z,204.71
2023-04-17T12:33:01.848Z,204.72
2023-04-17T12:34:01.782Z,204.58
2023-04-17T12:35:01.786Z,203.95
2023-04-17T12:36:01.824Z,204.37
2023-04-17T12:37:01.807Z,203.66
2023-04-17T12:38:01.893Z,203.47
2023-04-17T12:39:01.819Z,204.25
2023-04-17T12:40:02.633Z,205.04
2023-04-17T12:41:01.827Z,203.74
2023-04-17T12:42:01.868Z,204.04
2023-04-17T12:43:01.906Z,204.49
2023-04-17T12:44:01.940Z,204.53